Michael Poindexter — WDD4332 — position and weather

sailwx.info

Track history (hours):
 
Tides and Currents Weather Stations Pressure Air Temp Water Temp Dewpoint Dewpoint Depression Visibility Wind Speed Wind Dir Waves Ship Positions

Michael Poindexter

Owner: American Commercial Lines LLC, Jeffersonville, IN. More information available from US FCC via Universal Licensing System and Coast Guard Vessel Documentation Center.

Last reported at 2018-Feb-17 19:09 UTC. Time now 2018-Feb-21 11:04 UTC.
Position N 39°16' W 090°37'.

Length 48 m; draft 11 m.

Type: Towing. MMSI: 367143380.

Date/timePositionNaut miles runAvg speedWind from/ knotsBaromVisibWave heightAir tempDewpointWater temp
2018-Feb-17 19:09N 39°16' W 090°37'1 3.8
2018-Feb-17 18:59N 39°15' W 090°36'3 1.4
2018-Feb-17 17:07N 39°13' W 090°36'0 3.6
2018-Feb-17 17:00N 39°12' W 090°36'2 3.3
2018-Feb-17 16:30N 39°11' W 090°36'2 3.7
2018-Feb-17 16:00N 39°09' W 090°37'2 4.1
2018-Feb-17 15:30N 39°07' W 090°36'1 2.1
2018-Feb-17 15:00N 39°06' W 090°36'0 0.0
2018-Feb-17 14:30N 39°06' W 090°36'0 0.1
2018-Feb-17 14:00N 39°06' W 090°36'0 0.0
2018-Feb-17 13:30N 39°06' W 090°36'0 0.6
2018-Feb-17 13:00N 39°06' W 090°36'1 2.9
2018-Feb-17 12:30N 39°04' W 090°35'1 2.8
2018-Feb-17 12:00N 39°03' W 090°35'1 1.9
2018-Feb-17 11:30N 39°02' W 090°35'2 3.1
2018-Feb-17 11:00N 39°01' W 090°35'2 4.1
2018-Feb-17 10:30N 38°59' W 090°33'2 4.1
2018-Feb-17 10:00N 38°57' W 090°32'2 4.0
2018-Feb-17 09:30N 38°58' W 090°29'2 4.3
2018-Feb-17 09:00N 38°58' W 090°26'2 4.2
2018-Feb-17 08:30N 38°58' W 090°24'2 4.3
2018-Feb-17 08:00N 38°57' W 090°21'2 4.4
2018-Feb-17 07:30N 38°55' W 090°19'2 4.5
2018-Feb-17 07:00N 38°55' W 090°16'2 3.8
2018-Feb-17 06:30N 38°55' W 090°14'2 4.3
2018-Feb-17 06:00N 38°53' W 090°12'2 4.3
2018-Feb-17 05:30N 38°52' W 090°09'0 0.4
2018-Feb-17 05:00N 38°52' W 090°09'0 0.1
2018-Feb-17 04:30N 38°52' W 090°09'0 0.2
2018-Feb-17 04:00N 38°52' W 090°09'0 0.1
2018-Feb-17 03:30N 38°52' W 090°09'0 0.2
2018-Feb-17 03:00N 38°52' W 090°09'1 1.8
2018-Feb-17 02:30N 38°52' W 090°08'0 0.5
2018-Feb-17 02:00N 38°51' W 090°08'0 0.0
2018-Feb-17 01:30N 38°51' W 090°08'0 0.0
2018-Feb-17 01:00N 38°51' W 090°08'0 0.0
2018-Feb-17 00:30N 38°51' W 090°08'0 0.0
2018-Feb-17 00:00N 38°51' W 090°08'0 0.0
2018-Feb-16 23:30N 38°51' W 090°08'0 0.0
2018-Feb-16 23:00N 38°51' W 090°08'0 0.0
2018-Feb-16 22:30N 38°51' W 090°08'0 0.0
2018-Feb-16 21:58N 38°51' W 090°08'0 0.8
2018-Feb-16 21:30N 38°51' W 090°07'2 3.2
2018-Feb-16 21:00N 38°50' W 090°07'1 3.0
2018-Feb-16 20:30N 38°48' W 090°07'2 3.7
2018-Feb-16 19:58N 38°46' W 090°08'2 3.5
2018-Feb-16 19:30N 38°45' W 090°09'2 3.5
2018-Feb-16 19:00N 38°43' W 090°10'1 1.2
2018-Feb-16 18:08N 38°42' W 090°11'0 0.1
2018-Feb-16 18:00N 38°42' W 090°11'0 0.0
2018-Feb-16 17:30N 38°42' W 090°11'0 0.0
2018-Feb-16 17:00N 38°42' W 090°11'0 0.0
2018-Feb-16 16:30N 38°42' W 090°11'0 0.0
2018-Feb-16 16:00N 38°43' W 090°11'0 0.0
2018-Feb-16 15:30N 38°42' W 090°11'0 0.0
2018-Feb-16 15:00N 38°42' W 090°11'0 0.0
2018-Feb-16 14:30N 38°42' W 090°11'0 0.1
2018-Feb-16 14:00N 38°42' W 090°11'0 0.2
2018-Feb-16 13:30N 38°43' W 090°11'0 0.2
2018-Feb-16 13:00N 38°43' W 090°11'0 0.0
2018-Feb-16 12:30N 38°43' W 090°11'0 0.0
2018-Feb-16 12:00N 38°43' W 090°11'0 0.0
2018-Feb-16 11:30N 38°43' W 090°11'0 0.0
2018-Feb-16 11:00N 38°43' W 090°11'0 0.0
2018-Feb-16 10:29N 38°43' W 090°11'0 0.0
2018-Feb-16 10:00N 38°43' W 090°11'0 0.0
2018-Feb-16 09:30N 38°43' W 090°11'0 0.0
2018-Feb-16 09:00N 38°43' W 090°11'0 0.0
2018-Feb-16 08:30N 38°43' W 090°11'0 0.1
2018-Feb-16 08:00N 38°42' W 090°11'0 0.1
2018-Feb-16 07:30N 38°42' W 090°11'0 0.1
2018-Feb-16 07:00N 38°42' W 090°11'0 0.7
2018-Feb-16 06:30N 38°42' W 090°11'0 0.5
2018-Feb-16 06:00N 38°42' W 090°11'0 0.6
2018-Feb-16 05:30N 38°42' W 090°11'0 0.7
2018-Feb-16 05:00N 38°41' W 090°11'1 2.5
2018-Feb-16 04:30N 38°40' W 090°11'2 3.9
2018-Feb-16 04:00N 38°38' W 090°11'2 3.7
2018-Feb-16 03:27N 38°36' W 090°11'0 0.0
2018-Feb-16 03:00N 38°36' W 090°11'1 1.5
2018-Feb-16 02:28N 38°36' W 090°12'4 0.5
2018-Feb-15 18:28N 38°33' W 090°15'  
Track history (hours):
 
Tides and Currents Weather Stations Pressure Air Temp Water Temp Dewpoint Dewpoint Depression Visibility Wind Speed Wind Dir Waves Ship Positions

Michael Poindexter

Owner: American Commercial Lines LLC, Jeffersonville, IN. More information available from US FCC via Universal Licensing System and Coast Guard Vessel Documentation Center.

Last reported at 2018-Feb-17 19:09 UTC. Time now 2018-Feb-21 11:04 UTC.
Position N 39°16' W 090°37'.

Length 48 m; draft 11 m.

Type: Towing. MMSI: 367143380.

Date/timePositionNaut miles runAvg speedWind from/ knotsBaromVisibWave heightAir tempDewpointWater temp
2018-Feb-17 19:09N 39°16' W 090°37'1 3.8
2018-Feb-17 18:59N 39°15' W 090°36'3 1.4
2018-Feb-17 17:07N 39°13' W 090°36'0 3.6
2018-Feb-17 17:00N 39°12' W 090°36'2 3.3
2018-Feb-17 16:30N 39°11' W 090°36'2 3.7
2018-Feb-17 16:00N 39°09' W 090°37'2 4.1
2018-Feb-17 15:30N 39°07' W 090°36'1 2.1
2018-Feb-17 15:00N 39°06' W 090°36'0 0.0
2018-Feb-17 14:30N 39°06' W 090°36'0 0.1
2018-Feb-17 14:00N 39°06' W 090°36'0 0.0
2018-Feb-17 13:30N 39°06' W 090°36'0 0.6
2018-Feb-17 13:00N 39°06' W 090°36'1 2.9
2018-Feb-17 12:30N 39°04' W 090°35'1 2.8
2018-Feb-17 12:00N 39°03' W 090°35'1 1.9
2018-Feb-17 11:30N 39°02' W 090°35'2 3.1
2018-Feb-17 11:00N 39°01' W 090°35'2 4.1
2018-Feb-17 10:30N 38°59' W 090°33'2 4.1
2018-Feb-17 10:00N 38°57' W 090°32'2 4.0
2018-Feb-17 09:30N 38°58' W 090°29'2 4.3
2018-Feb-17 09:00N 38°58' W 090°26'2 4.2
2018-Feb-17 08:30N 38°58' W 090°24'2 4.3
2018-Feb-17 08:00N 38°57' W 090°21'2 4.4
2018-Feb-17 07:30N 38°55' W 090°19'2 4.5
2018-Feb-17 07:00N 38°55' W 090°16'2 3.8
2018-Feb-17 06:30N 38°55' W 090°14'2 4.3
2018-Feb-17 06:00N 38°53' W 090°12'2 4.3
2018-Feb-17 05:30N 38°52' W 090°09'0 0.4
2018-Feb-17 05:00N 38°52' W 090°09'0 0.1
2018-Feb-17 04:30N 38°52' W 090°09'0 0.2
2018-Feb-17 04:00N 38°52' W 090°09'0 0.1
2018-Feb-17 03:30N 38°52' W 090°09'0 0.2
2018-Feb-17 03:00N 38°52' W 090°09'1 1.8
2018-Feb-17 02:30N 38°52' W 090°08'0 0.5
2018-Feb-17 02:00N 38°51' W 090°08'0 0.0
2018-Feb-17 01:30N 38°51' W 090°08'0 0.0
2018-Feb-17 01:00N 38°51' W 090°08'0 0.0
2018-Feb-17 00:30N 38°51' W 090°08'0 0.0
2018-Feb-17 00:00N 38°51' W 090°08'0 0.0
2018-Feb-16 23:30N 38°51' W 090°08'0 0.0
2018-Feb-16 23:00N 38°51' W 090°08'0 0.0
2018-Feb-16 22:30N 38°51' W 090°08'0 0.0
2018-Feb-16 21:58N 38°51' W 090°08'0 0.8
2018-Feb-16 21:30N 38°51' W 090°07'2 3.2
2018-Feb-16 21:00N 38°50' W 090°07'1 3.0
2018-Feb-16 20:30N 38°48' W 090°07'2 3.7
2018-Feb-16 19:58N 38°46' W 090°08'2 3.5
2018-Feb-16 19:30N 38°45' W 090°09'2 3.5
2018-Feb-16 19:00N 38°43' W 090°10'1 1.2
2018-Feb-16 18:08N 38°42' W 090°11'0 0.1
2018-Feb-16 18:00N 38°42' W 090°11'0 0.0
2018-Feb-16 17:30N 38°42' W 090°11'0 0.0
2018-Feb-16 17:00N 38°42' W 090°11'0 0.0
2018-Feb-16 16:30N 38°42' W 090°11'0 0.0
2018-Feb-16 16:00N 38°43' W 090°11'0 0.0
2018-Feb-16 15:30N 38°42' W 090°11'0 0.0
2018-Feb-16 15:00N 38°42' W 090°11'0 0.0
2018-Feb-16 14:30N 38°42' W 090°11'0 0.1
2018-Feb-16 14:00N 38°42' W 090°11'0 0.2
2018-Feb-16 13:30N 38°43' W 090°11'0 0.2
2018-Feb-16 13:00N 38°43' W 090°11'0 0.0
2018-Feb-16 12:30N 38°43' W 090°11'0 0.0
2018-Feb-16 12:00N 38°43' W 090°11'0 0.0
2018-Feb-16 11:30N 38°43' W 090°11'0 0.0
2018-Feb-16 11:00N 38°43' W 090°11'0 0.0
2018-Feb-16 10:29N 38°43' W 090°11'0 0.0
2018-Feb-16 10:00N 38°43' W 090°11'0 0.0
2018-Feb-16 09:30N 38°43' W 090°11'0 0.0
2018-Feb-16 09:00N 38°43' W 090°11'0 0.0
2018-Feb-16 08:30N 38°43' W 090°11'0 0.1
2018-Feb-16 08:00N 38°42' W 090°11'0 0.1
2018-Feb-16 07:30N 38°42' W 090°11'0 0.1
2018-Feb-16 07:00N 38°42' W 090°11'0 0.7
2018-Feb-16 06:30N 38°42' W 090°11'0 0.5
2018-Feb-16 06:00N 38°42' W 090°11'0 0.6
2018-Feb-16 05:30N 38°42' W 090°11'0 0.7
2018-Feb-16 05:00N 38°41' W 090°11'1 2.5
2018-Feb-16 04:30N 38°40' W 090°11'2 3.9
2018-Feb-16 04:00N 38°38' W 090°11'2 3.7
2018-Feb-16 03:27N 38°36' W 090°11'0 0.0
2018-Feb-16 03:00N 38°36' W 090°11'1 1.5
2018-Feb-16 02:28N 38°36' W 090°12'4 0.5
2018-Feb-15 18:28N 38°33' W 090°15'  

Dump ship's entire track history